createdAt,value
2018-01-12T00:00:05.942Z,2.80
2018-01-12T00:01:05.571Z,2.80
2018-01-12T00:02:05.331Z,2.80
2018-01-12T00:03:05.884Z,2.80
2018-01-12T00:04:08.080Z,2.90
2018-01-12T00:05:10.477Z,2.80
2018-01-12T00:06:11.007Z,2.80
2018-01-12T00:07:05.691Z,2.80
2018-01-12T00:08:05.268Z,2.90
2018-01-12T00:09:08.402Z,2.90
2018-01-12T00:10:05.865Z,2.90
2018-01-12T00:11:05.396Z,2.90
2018-01-12T00:12:05.317Z,2.90
2018-01-12T00:13:10.313Z,2.90
2018-01-12T00:14:05.731Z,2.90
2018-01-12T00:15:05.357Z,2.90
2018-01-12T00:16:08.377Z,2.90
2018-01-12T00:17:05.903Z,2.90
2018-01-12T00:18:05.394Z,2.90
2018-01-12T00:19:05.358Z,2.90
2018-01-12T00:20:05.212Z,2.90
2018-01-12T00:21:08.377Z,2.90
2018-01-12T00:22:08.339Z,2.90
2018-01-12T00:23:08.322Z,2.90
2018-01-12T00:24:05.721Z,2.90
2018-01-12T00:25:07.799Z,2.90
2018-01-12T00:26:05.195Z,2.90
2018-01-12T00:27:06.015Z,2.90
2018-01-12T00:28:05.544Z,2.90
2018-01-12T00:29:08.558Z,3.00
2018-01-12T00:30:08.434Z,3.00
2018-01-12T00:31:05.929Z,2.90
2018-01-12T00:32:08.074Z,3.00
2018-01-12T00:33:05.578Z,3.00
2018-01-12T00:34:05.107Z,2.90
2018-01-12T00:35:08.248Z,3.00
2018-01-12T00:36:05.901Z,2.90
2018-01-12T00:37:05.525Z,3.00
2018-01-12T00:38:05.235Z,2.90
2018-01-12T00:39:06.123Z,3.00
2018-01-12T00:40:05.322Z,3.00
2018-01-12T00:41:05.864Z,3.00
2018-01-12T00:42:05.580Z,3.00
2018-01-12T00:43:06.166Z,2.90
2018-01-12T00:44:08.408Z,3.00
2018-01-12T00:45:13.340Z,2.90
2018-01-12T00:46:08.186Z,2.90
2018-01-12T00:47:05.702Z,3.00
2018-01-12T00:48:05.218Z,2.90
2018-01-12T00:49:05.400Z,3.00
2018-01-12T00:50:06.004Z,3.00
2018-01-12T00:51:05.496Z,3.00
2018-01-12T00:52:06.054Z,3.00
2018-01-12T00:53:10.719Z,3.00
2018-01-12T00:54:08.603Z,3.00
2018-01-12T00:55:05.111Z,3.00
2018-01-12T00:56:08.168Z,3.00
2018-01-12T00:57:05.173Z,3.00
2018-01-12T00:58:05.675Z,3.00
2018-01-12T00:59:05.388Z,3.00
2018-01-12T01:00:05.533Z,3.00
2018-01-12T01:01:08.694Z,3.00
2018-01-12T01:02:06.104Z,2.90
2018-01-12T01:03:08.168Z,2.90
2018-01-12T01:04:05.568Z,2.90
2018-01-12T01:05:05.099Z,3.00
2018-01-12T01:06:08.494Z,2.90
2018-01-12T01:07:06.233Z,2.90
2018-01-12T01:08:08.136Z,2.90
2018-01-12T01:09:05.555Z,2.90
2018-01-12T01:10:06.092Z,2.90
2018-01-12T01:11:05.949Z,2.90
2018-01-12T01:12:05.558Z,2.90
2018-01-12T01:13:08.647Z,2.90
2018-01-12T01:14:05.646Z,2.90
2018-01-12T01:15:07.771Z,2.90
2018-01-12T01:16:10.175Z,2.90
2018-01-12T01:17:08.107Z,2.90
2018-01-12T01:18:05.484Z,2.90
2018-01-12T01:19:05.321Z,2.90
2018-01-12T01:20:05.877Z,2.90
2018-01-12T01:21:05.412Z,2.90
2018-01-12T01:22:05.964Z,2.90
2018-01-12T01:23:13.507Z,2.90
2018-01-12T01:24:08.346Z,2.90
2018-01-12T01:25:05.827Z,2.90
2018-01-12T01:26:05.425Z,2.90
2018-01-12T01:27:05.792Z,2.90
2018-01-12T01:28:10.507Z,2.90
2018-01-12T01:29:05.900Z,3.00
2018-01-12T01:30:06.190Z,3.00
2018-01-12T01:31:08.429Z,2.90
2018-01-12T01:32:05.906Z,2.90
2018-01-12T01:33:05.450Z,2.90
2018-01-12T01:34:05.238Z,3.00
2018-01-12T01:35:05.786Z,3.00
2018-01-12T01:36:08.007Z,3.00
2018-01-12T01:37:10.512Z,3.00
2018-01-12T01:38:05.567Z,3.00
2018-01-12T01:39:05.338Z,2.90
2018-01-12T01:40:07.746Z,3.00
2018-01-12T01:41:07.730Z,3.00
2018-01-12T01:42:05.106Z,3.00
2018-01-12T01:43:08.364Z,2.90
2018-01-12T01:44:07.734Z,3.00
2018-01-12T01:45:10.262Z,2.90
2018-01-12T01:46:08.353Z,3.00
2018-01-12T01:47:05.756Z,3.00
2018-01-12T01:48:05.271Z,3.00
2018-01-12T01:49:07.912Z,3.00
2018-01-12T01:50:06.029Z,3.00
2018-01-12T01:51:05.613Z,3.00
2018-01-12T01:52:05.368Z,2.90
2018-01-12T01:53:10.201Z,2.90
2018-01-12T01:54:08.080Z,2.90
2018-01-12T01:55:05.532Z,2.90
2018-01-12T01:56:08.551Z,2.90
2018-01-12T01:57:06.054Z,2.90
2018-01-12T01:58:05.780Z,2.90
2018-01-12T01:59:05.283Z,2.90
2018-01-12T02:00:10.982Z,2.90
2018-01-12T02:01:07.861Z,2.90
2018-01-12T02:02:05.555Z,2.90
2018-01-12T02:03:07.727Z,2.90
2018-01-12T02:04:05.395Z,2.80
2018-01-12T02:05:10.994Z,2.80
2018-01-12T02:06:10.211Z,2.90
2018-01-12T02:07:05.877Z,2.80
2018-01-12T02:08:05.443Z,2.90
2018-01-12T02:09:07.881Z,2.90
2018-01-12T02:10:07.794Z,2.80
2018-01-12T02:11:10.208Z,2.80
2018-01-12T02:12:05.487Z,2.80
2018-01-12T02:13:06.005Z,2.80
2018-01-12T02:14:08.553Z,2.80
2018-01-12T02:15:08.456Z,2.80
2018-01-12T02:16:05.886Z,2.80
2018-01-12T02:17:10.881Z,2.80
2018-01-12T02:18:05.278Z,2.80
2018-01-12T02:19:06.143Z,2.80
2018-01-12T02:20:05.719Z,2.80
2018-01-12T02:21:05.480Z,2.80
2018-01-12T02:22:06.052Z,2.70
2018-01-12T02:23:05.662Z,2.70
2018-01-12T02:24:05.444Z,2.70
2018-01-12T02:25:05.368Z,2.70
2018-01-12T02:26:05.961Z,2.70
2018-01-12T02:27:10.530Z,2.70
2018-01-12T02:28:11.077Z,2.70
2018-01-12T02:29:05.455Z,2.70
2018-01-12T02:30:05.474Z,2.70
2018-01-12T02:31:06.012Z,2.70
2018-01-12T02:32:05.576Z,2.70
2018-01-12T02:33:07.754Z,2.70
2018-01-12T02:34:07.726Z,2.70
2018-01-12T02:35:10.814Z,2.60
2018-01-12T02:36:05.241Z,2.70
2018-01-12T02:37:06.026Z,2.60
2018-01-12T02:38:05.537Z,2.60
2018-01-12T02:39:08.574Z,2.70
2018-01-12T02:40:06.042Z,2.60
2018-01-12T02:41:05.574Z,2.60
2018-01-12T02:42:05.560Z,2.60
2018-01-12T02:43:08.682Z,2.60
2018-01-12T02:44:06.196Z,2.60
2018-01-12T02:45:05.768Z,2.60
2018-01-12T02:46:07.880Z,2.60
2018-01-12T02:47:05.266Z,2.60
2018-01-12T02:48:08.362Z,2.60
2018-01-12T02:49:05.428Z,2.60
2018-01-12T02:50:05.909Z,2.60
2018-01-12T02:51:05.567Z,2.60
2018-01-12T02:52:07.618Z,2.60
2018-01-12T02:53:05.995Z,2.60
2018-01-12T02:54:05.502Z,2.60
2018-01-12T02:55:10.971Z,2.60
2018-01-12T02:56:05.206Z,2.70
2018-01-12T02:57:05.683Z,2.60
2018-01-12T02:58:05.412Z,2.60
2018-01-12T02:59:10.972Z,2.60
2018-01-12T03:00:07.879Z,2.70
2018-01-12T03:01:07.789Z,2.60
2018-01-12T03:02:05.206Z,2.60
2018-01-12T03:03:05.352Z,2.70
2018-01-12T03:04:05.253Z,2.70
2018-01-12T03:05:05.911Z,2.70
2018-01-12T03:06:05.360Z,2.70
2018-01-12T03:07:06.226Z,2.70
2018-01-12T03:08:05.230Z,2.70
2018-01-12T03:09:05.454Z,2.70
2018-01-12T03:10:10.450Z,2.60
2018-01-12T03:11:10.754Z,2.70
2018-01-12T03:12:06.111Z,2.70
2018-01-12T03:13:05.764Z,2.70
2018-01-12T03:14:05.228Z,2.70
2018-01-12T03:15:05.823Z,2.70
2018-01-12T03:16:07.907Z,2.70
2018-01-12T03:17:05.355Z,2.70
2018-01-12T03:18:08.481Z,2.70
2018-01-12T03:19:08.585Z,2.70
2018-01-12T03:20:05.713Z,2.70
2018-01-12T03:21:05.303Z,2.70
2018-01-12T03:22:05.276Z,2.70
2018-01-12T03:23:05.170Z,2.70
2018-01-12T03:24:05.668Z,2.70
2018-01-12T03:25:05.524Z,2.70
2018-01-12T03:26:06.302Z,2.70
2018-01-12T03:27:05.248Z,2.70
2018-01-12T03:28:08.282Z,2.70
2018-01-12T03:29:05.785Z,2.70
2018-01-12T03:30:05.334Z,2.70
2018-01-12T03:31:05.298Z,2.70
2018-01-12T03:32:11.041Z,2.70
2018-01-12T03:33:07.898Z,2.70
2018-01-12T03:34:08.590Z,2.70
2018-01-12T03:35:08.520Z,2.80
2018-01-12T03:36:08.030Z,2.80
2018-01-12T03:37:10.504Z,2.80
2018-01-12T03:38:08.426Z,2.80
2018-01-12T03:39:05.766Z,2.80
2018-01-12T03:40:08.422Z,2.80
2018-01-12T03:41:06.048Z,2.80
2018-01-12T03:42:08.574Z,2.80
2018-01-12T03:43:11.131Z,2.80
2018-01-12T03:44:05.618Z,2.80
2018-01-12T03:45:05.481Z,2.80
2018-01-12T03:46:10.402Z,2.80
2018-01-12T03:47:08.214Z,2.80
2018-01-12T03:48:05.707Z,2.80
2018-01-12T03:49:05.257Z,2.80
2018-01-12T03:50:10.991Z,2.80
2018-01-12T03:51:07.968Z,2.80
2018-01-12T03:52:05.446Z,2.80
2018-01-12T03:53:08.485Z,2.80
2018-01-12T03:54:05.960Z,2.80
2018-01-12T03:55:05.511Z,2.80
2018-01-12T03:56:06.027Z,2.80
2018-01-12T03:57:05.850Z,2.80
2018-01-12T03:58:05.387Z,2.80
2018-01-12T03:59:05.099Z,2.90
2018-01-12T04:00:05.576Z,2.80
2018-01-12T04:01:07.641Z,2.80
2018-01-12T04:02:08.521Z,2.90
2018-01-12T04:03:05.896Z,2.80
2018-01-12T04:04:10.512Z,2.90
2018-01-12T04:05:05.739Z,2.80
2018-01-12T04:06:07.745Z,2.80
2018-01-12T04:07:05.094Z,2.90
2018-01-12T04:08:05.863Z,2.90
2018-01-12T04:09:07.902Z,2.80
2018-01-12T04:10:05.345Z,2.90
2018-01-12T04:11:05.930Z,2.90
2018-01-12T04:12:05.528Z,2.90
2018-01-12T04:13:06.076Z,2.90
2018-01-12T04:14:10.760Z,2.80
2018-01-12T04:15:08.574Z,2.90
2018-01-12T04:16:08.546Z,2.90
2018-01-12T04:17:06.017Z,2.80
2018-01-12T04:18:05.644Z,2.90
2018-01-12T04:19:10.185Z,2.90
2018-01-12T04:20:05.607Z,2.90
2018-01-12T04:21:10.357Z,2.90
2018-01-12T04:22:05.962Z,2.90
2018-01-12T04:23:05.775Z,2.80
2018-01-12T04:24:15.403Z,2.80
2018-01-12T04:25:10.754Z,2.80
2018-01-12T04:26:05.111Z,2.90
2018-01-12T04:27:06.064Z,2.90
2018-01-12T04:28:08.429Z,2.90
2018-01-12T04:29:05.845Z,2.90
2018-01-12T04:30:10.360Z,2.90
2018-01-12T04:31:05.765Z,2.80
2018-01-12T04:32:06.067Z,2.90
2018-01-12T04:33:05.713Z,2.90
2018-01-12T04:34:05.965Z,2.90
2018-01-12T04:35:06.167Z,2.90
2018-01-12T04:36:05.113Z,2.90
2018-01-12T04:37:10.487Z,2.90
2018-01-12T04:38:08.412Z,3.00
2018-01-12T04:39:05.778Z,2.90
2018-01-12T04:40:10.738Z,2.90
2018-01-12T04:41:06.011Z,2.90
2018-01-12T04:42:05.285Z,3.00
2018-01-12T04:43:10.860Z,3.00
2018-01-12T04:44:08.249Z,3.00
2018-01-12T04:45:08.164Z,3.00
2018-01-12T04:46:08.198Z,2.90
2018-01-12T04:47:13.076Z,3.00
2018-01-12T04:48:05.466Z,3.00
2018-01-12T04:49:08.303Z,3.00
2018-01-12T04:50:05.749Z,3.00
2018-01-12T04:51:08.038Z,3.00
2018-01-12T04:52:05.427Z,3.00
2018-01-12T04:53:11.160Z,3.00
2018-01-12T04:54:05.470Z,3.00
2018-01-12T04:55:05.247Z,3.00
2018-01-12T04:56:08.376Z,3.00
2018-01-12T04:57:05.822Z,3.00
2018-01-12T04:58:10.459Z,3.00
2018-01-12T04:59:05.740Z,3.00
2018-01-12T05:00:05.298Z,3.00
2018-01-12T05:01:10.980Z,3.00
2018-01-12T05:02:05.454Z,3.00
2018-01-12T05:03:05.201Z,3.00
2018-01-12T05:04:10.941Z,3.00
2018-01-12T05:05:07.968Z,3.10
2018-01-12T05:06:10.361Z,3.00
2018-01-12T05:07:08.230Z,3.10
2018-01-12T05:08:05.602Z,3.10
2018-01-12T05:09:05.095Z,3.10
2018-01-12T05:10:05.928Z,3.10
2018-01-12T05:11:10.460Z,3.10
2018-01-12T05:12:08.445Z,3.10
2018-01-12T05:13:08.373Z,3.10
2018-01-12T05:14:05.887Z,3.10
2018-01-12T05:15:05.597Z,3.10
2018-01-12T05:16:07.732Z,3.10
2018-01-12T05:17:05.127Z,3.10
2018-01-12T05:18:05.756Z,3.10
2018-01-12T05:19:05.214Z,3.10
2018-01-12T05:20:08.291Z,3.10
2018-01-12T05:21:08.356Z,3.10
2018-01-12T05:22:06.043Z,3.10
2018-01-12T05:23:07.794Z,3.10
2018-01-12T05:24:07.817Z,3.10
2018-01-12T05:25:05.623Z,3.10
2018-01-12T05:26:07.792Z,3.10
2018-01-12T05:27:05.191Z,3.10
2018-01-12T05:28:06.016Z,3.10
2018-01-12T05:29:08.059Z,3.10
2018-01-12T05:30:08.597Z,3.10
2018-01-12T05:31:08.550Z,3.10
2018-01-12T05:32:08.497Z,3.10
2018-01-12T05:33:06.007Z,3.10
2018-01-12T05:34:08.042Z,3.10
2018-01-12T05:35:08.017Z,3.10
2018-01-12T05:36:05.462Z,3.10
2018-01-12T05:37:06.066Z,3.10
2018-01-12T05:38:05.925Z,3.10
2018-01-12T05:39:05.503Z,3.10
2018-01-12T05:40:11.057Z,3.10
2018-01-12T05:41:07.923Z,3.10
2018-01-12T05:42:05.329Z,3.10
2018-01-12T05:43:05.841Z,3.10
2018-01-12T05:44:13.062Z,3.10
2018-01-12T05:45:08.063Z,3.10
2018-01-12T05:46:05.492Z,3.10
2018-01-12T05:47:06.051Z,3.10
2018-01-12T05:48:05.789Z,3.10
2018-01-12T05:49:05.304Z,3.10
2018-01-12T05:50:06.271Z,3.10
2018-01-12T05:51:06.396Z,3.10
2018-01-12T05:52:05.877Z,3.10
2018-01-12T05:53:10.538Z,3.10
2018-01-12T05:54:08.419Z,3.20
2018-01-12T05:55:05.866Z,3.10
2018-01-12T05:56:05.383Z,3.10
2018-01-12T05:57:07.703Z,3.10
2018-01-12T05:58:05.238Z,3.10
2018-01-12T05:59:05.768Z,3.10
2018-01-12T06:00:05.347Z,3.10
2018-01-12T06:01:05.876Z,3.20
2018-01-12T06:02:07.993Z,3.10
2018-01-12T06:03:07.906Z,3.20
2018-01-12T06:04:05.242Z,3.20
2018-01-12T06:05:08.523Z,3.20
2018-01-12T06:06:08.481Z,3.10
2018-01-12T06:07:08.372Z,3.20
2018-01-12T06:08:06.161Z,3.20
2018-01-12T06:09:08.171Z,3.20
2018-01-12T06:10:08.210Z,3.20
2018-01-12T06:11:05.598Z,3.10
2018-01-12T06:12:05.381Z,3.20
2018-01-12T06:13:05.272Z,3.20
2018-01-12T06:14:10.832Z,3.20
2018-01-12T06:15:05.330Z,3.20
2018-01-12T06:16:05.341Z,3.20
2018-01-12T06:17:08.469Z,3.10
2018-01-12T06:18:10.913Z,3.20
2018-01-12T06:19:07.991Z,3.20
2018-01-12T06:20:05.480Z,3.20
2018-01-12T06:21:06.009Z,3.10
2018-01-12T06:22:05.794Z,3.20
2018-01-12T06:23:05.746Z,3.20
2018-01-12T06:24:05.924Z,3.20
2018-01-12T06:25:08.104Z,3.20
2018-01-12T06:26:07.988Z,3.20
2018-01-12T06:27:07.954Z,3.20
2018-01-12T06:28:05.867Z,3.20
2018-01-12T06:29:05.725Z,3.20
2018-01-12T06:30:05.504Z,3.20
2018-01-12T06:31:05.112Z,3.20
2018-01-12T06:32:10.727Z,3.20
2018-01-12T06:33:05.187Z,3.20
2018-01-12T06:34:05.923Z,3.20
2018-01-12T06:35:05.450Z,3.20
2018-01-12T06:36:06.329Z,3.20
2018-01-12T06:37:08.318Z,3.20
2018-01-12T06:38:08.362Z,3.20
2018-01-12T06:39:08.298Z,3.20
2018-01-12T06:40:05.692Z,3.20
2018-01-12T06:41:05.254Z,3.20
2018-01-12T06:42:06.016Z,3.20
2018-01-12T06:43:06.067Z,3.20
2018-01-12T06:44:05.674Z,3.20
2018-01-12T06:45:05.736Z,3.20
2018-01-12T06:46:08.065Z,3.20
2018-01-12T06:47:05.522Z,3.20
2018-01-12T06:48:06.093Z,3.20
2018-01-12T06:49:08.598Z,3.20
2018-01-12T06:50:11.022Z,3.10
2018-01-12T06:51:05.508Z,3.10
2018-01-12T06:52:06.087Z,3.20
2018-01-12T06:53:11.051Z,3.20
2018-01-12T06:54:07.889Z,3.20
2018-01-12T06:55:05.350Z,3.10
2018-01-12T06:56:05.936Z,3.20
2018-01-12T06:57:05.699Z,3.20
2018-01-12T06:58:05.439Z,3.20
2018-01-12T06:59:05.782Z,3.20
2018-01-12T07:00:07.900Z,3.20
2018-01-12T07:01:10.876Z,3.20
2018-01-12T07:02:10.415Z,3.20
2018-01-12T07:03:05.666Z,3.20
2018-01-12T07:04:10.314Z,3.20
2018-01-12T07:05:05.703Z,3.20
2018-01-12T07:06:07.894Z,3.20
2018-01-12T07:07:07.754Z,3.20
2018-01-12T07:08:10.201Z,3.20
2018-01-12T07:09:08.141Z,3.20
2018-01-12T07:10:08.084Z,3.20
2018-01-12T07:11:05.525Z,3.20
2018-01-12T07:12:07.634Z,3.30
2018-01-12T07:13:08.593Z,3.20
2018-01-12T07:14:05.983Z,3.20
2018-01-12T07:15:05.426Z,3.20
2018-01-12T07:16:05.984Z,3.30
2018-01-12T07:17:10.674Z,3.20
2018-01-12T07:18:11.225Z,3.30
2018-01-12T07:19:05.841Z,3.30
2018-01-12T07:20:05.347Z,3.20
2018-01-12T07:21:15.339Z,3.20
2018-01-12T07:22:05.814Z,3.30
2018-01-12T07:23:07.993Z,3.30
2018-01-12T07:24:05.510Z,3.20
2018-01-12T07:25:05.644Z,3.30
2018-01-12T07:26:05.613Z,3.20
2018-01-12T07:27:07.748Z,3.30
2018-01-12T07:28:07.819Z,3.30
2018-01-12T07:29:05.349Z,3.20
2018-01-12T07:30:06.190Z,3.30
2018-01-12T07:31:08.352Z,3.30
2018-01-12T07:32:05.838Z,3.30
2018-01-12T07:33:05.616Z,3.30
2018-01-12T07:34:05.477Z,3.30
2018-01-12T07:35:05.770Z,3.30
2018-01-12T07:36:06.434Z,3.30
2018-01-12T07:37:05.976Z,3.30
2018-01-12T07:38:05.606Z,3.30
2018-01-12T07:39:06.070Z,3.30
2018-01-12T07:40:05.649Z,3.30
2018-01-12T07:41:10.296Z,3.30
2018-01-12T07:42:05.796Z,3.30
2018-01-12T07:43:08.077Z,3.30
2018-01-12T07:44:05.710Z,3.30
2018-01-12T07:45:05.236Z,3.30
2018-01-12T07:46:08.630Z,3.30
2018-01-12T07:47:06.028Z,3.30
2018-01-12T07:48:12.848Z,3.30
2018-01-12T07:49:07.831Z,3.30
2018-01-12T07:50:07.713Z,3.30
2018-01-12T07:51:06.437Z,3.30
2018-01-12T07:52:08.532Z,3.30
2018-01-12T07:53:05.982Z,3.30
2018-01-12T07:54:05.732Z,3.30
2018-01-12T07:55:06.234Z,3.30
2018-01-12T07:56:06.087Z,3.40
2018-01-12T07:57:08.175Z,3.40
2018-01-12T07:58:05.497Z,3.30
2018-01-12T07:59:06.025Z,3.40
2018-01-12T08:00:08.032Z,3.40
2018-01-12T08:01:05.432Z,3.40
2018-01-12T08:02:11.084Z,3.40
2018-01-12T08:03:05.442Z,3.40
2018-01-12T08:04:05.375Z,3.40
2018-01-12T08:05:07.888Z,3.40
2018-01-12T08:06:05.258Z,3.40
2018-01-12T08:07:08.349Z,3.40
2018-01-12T08:08:05.788Z,3.40
2018-01-12T08:09:08.021Z,3.40
2018-01-12T08:10:07.895Z,3.40
2018-01-12T08:11:05.333Z,3.40
2018-01-12T08:12:05.912Z,3.40
2018-01-12T08:13:05.704Z,3.40
2018-01-12T08:14:05.316Z,3.40
2018-01-12T08:15:08.566Z,3.40
2018-01-12T08:16:06.101Z,3.40
2018-01-12T08:17:08.289Z,3.40
2018-01-12T08:18:05.679Z,3.40
2018-01-12T08:19:05.450Z,3.40
2018-01-12T08:20:07.877Z,3.40
2018-01-12T08:21:07.789Z,3.40
2018-01-12T08:22:05.238Z,3.40
2018-01-12T08:23:05.269Z,3.40
2018-01-12T08:24:06.040Z,3.40
2018-01-12T08:25:05.603Z,3.40
2018-01-12T08:26:05.458Z,3.40
2018-01-12T08:27:08.618Z,3.50
2018-01-12T08:28:08.437Z,3.50
2018-01-12T08:29:05.806Z,3.40
2018-01-12T08:30:05.401Z,3.40
2018-01-12T08:31:05.845Z,3.40
2018-01-12T08:32:05.471Z,3.40
2018-01-12T08:33:10.969Z,3.50
2018-01-12T08:34:05.486Z,3.50
2018-01-12T08:35:07.722Z,3.50
2018-01-12T08:36:05.347Z,3.50
2018-01-12T08:37:08.380Z,3.50
2018-01-12T08:38:05.892Z,3.50
2018-01-12T08:39:05.562Z,3.50
2018-01-12T08:40:05.545Z,3.50
2018-01-12T08:41:06.096Z,3.50
2018-01-12T08:42:05.766Z,3.50
2018-01-12T08:43:10.441Z,3.50
2018-01-12T08:44:05.737Z,3.50
2018-01-12T08:45:05.891Z,3.60
2018-01-12T08:46:05.482Z,3.50
2018-01-12T08:47:07.840Z,3.60
2018-01-12T08:48:07.848Z,3.60
2018-01-12T08:49:05.365Z,3.60
2018-01-12T08:50:08.579Z,3.60
2018-01-12T08:51:05.979Z,3.60
2018-01-12T08:52:05.499Z,3.60
2018-01-12T08:53:05.217Z,3.60
2018-01-12T08:54:08.296Z,3.60
2018-01-12T08:55:08.237Z,3.60
2018-01-12T08:56:05.725Z,3.60
2018-01-12T08:57:07.842Z,3.60
2018-01-12T08:58:07.777Z,3.60
2018-01-12T08:59:05.214Z,3.60
2018-01-12T09:00:08.324Z,3.60
2018-01-12T09:01:05.833Z,3.60
2018-01-12T09:02:05.375Z,3.60
2018-01-12T09:03:11.015Z,3.60
2018-01-12T09:04:05.401Z,3.60
2018-01-12T09:05:08.632Z,3.60
2018-01-12T09:06:08.596Z,3.60
2018-01-12T09:07:05.936Z,3.60
2018-01-12T09:08:05.633Z,3.60
2018-01-12T09:09:05.254Z,3.60
2018-01-12T09:10:08.363Z,3.60
2018-01-12T09:11:05.918Z,3.60
2018-01-12T09:12:10.940Z,3.60
2018-01-12T09:13:05.302Z,3.60
2018-01-12T09:14:13.559Z,3.60
2018-01-12T09:15:08.517Z,3.60
2018-01-12T09:16:05.865Z,3.60
2018-01-12T09:17:05.522Z,3.60
2018-01-12T09:18:06.010Z,3.60
2018-01-12T09:19:05.622Z,3.60
2018-01-12T09:20:05.233Z,3.60
2018-01-12T09:21:11.185Z,3.60
2018-01-12T09:22:05.784Z,3.50
2018-01-12T09:23:10.639Z,3.50
2018-01-12T09:24:08.782Z,3.60
2018-01-12T09:25:05.158Z,3.50
2018-01-12T09:26:05.860Z,3.60
2018-01-12T09:27:05.462Z,3.50
2018-01-12T09:28:06.021Z,3.60
2018-01-12T09:29:05.561Z,3.60
2018-01-12T09:30:05.280Z,3.60
2018-01-12T09:31:05.756Z,3.60
2018-01-12T09:32:05.599Z,3.50
2018-01-12T09:33:06.046Z,3.60
2018-01-12T09:34:05.710Z,3.60
2018-01-12T09:35:05.648Z,3.60
2018-01-12T09:36:05.282Z,3.60
2018-01-12T09:37:05.875Z,3.60
2018-01-12T09:38:05.415Z,3.60
2018-01-12T09:39:05.987Z,3.60
2018-01-12T09:40:05.523Z,3.60
2018-01-12T09:41:08.523Z,3.60
2018-01-12T09:42:05.235Z,3.60
2018-01-12T09:43:08.364Z,3.60
2018-01-12T09:44:08.288Z,3.60
2018-01-12T09:45:08.144Z,3.60
2018-01-12T09:46:05.566Z,3.60
2018-01-12T09:47:10.438Z,3.60
2018-01-12T09:48:08.326Z,3.60
2018-01-12T09:49:05.725Z,3.60
2018-01-12T09:50:07.869Z,3.60
2018-01-12T09:51:05.230Z,3.60
2018-01-12T09:52:05.380Z,3.60
2018-01-12T09:53:07.835Z,3.60
2018-01-12T09:54:05.238Z,3.60
2018-01-12T09:55:10.354Z,3.60
2018-01-12T09:56:05.596Z,3.60
2018-01-12T09:57:05.927Z,3.60
2018-01-12T09:58:07.944Z,3.70
2018-01-12T09:59:10.305Z,3.70
2018-01-12T10:00:05.193Z,3.60
2018-01-12T10:01:05.659Z,3.60
2018-01-12T10:02:07.801Z,3.60
2018-01-12T10:03:05.255Z,3.60
2018-01-12T10:04:05.999Z,3.70
2018-01-12T10:05:05.568Z,3.70
2018-01-12T10:06:05.707Z,3.70
2018-01-12T10:07:05.853Z,3.70
2018-01-12T10:08:07.936Z,3.70
2018-01-12T10:09:07.841Z,3.70
2018-01-12T10:10:05.445Z,3.70
2018-01-12T10:11:06.106Z,3.70
2018-01-12T10:12:05.931Z,3.70
2018-01-12T10:13:05.763Z,3.70
2018-01-12T10:14:07.856Z,3.70
2018-01-12T10:15:05.216Z,3.70
2018-01-12T10:16:05.700Z,3.70
2018-01-12T10:17:05.449Z,3.70
2018-01-12T10:18:05.973Z,3.70
2018-01-12T10:19:05.138Z,3.70
2018-01-12T10:20:08.166Z,3.70
2018-01-12T10:21:06.018Z,3.70
2018-01-12T10:22:08.155Z,3.70
2018-01-12T10:23:05.563Z,3.60
2018-01-12T10:24:08.299Z,3.70
2018-01-12T10:25:07.798Z,3.70
2018-01-12T10:26:10.216Z,3.70
2018-01-12T10:27:08.593Z,3.70
2018-01-12T10:28:08.572Z,3.70
2018-01-12T10:29:05.954Z,3.70
2018-01-12T10:30:06.023Z,3.70
2018-01-12T10:31:08.215Z,3.70
2018-01-12T10:32:05.688Z,3.70
2018-01-12T10:33:05.326Z,3.70
2018-01-12T10:34:06.234Z,3.70
2018-01-12T10:35:05.835Z,3.70
2018-01-12T10:36:06.117Z,3.70
2018-01-12T10:37:08.144Z,3.70
2018-01-12T10:38:10.568Z,3.70
2018-01-12T10:39:05.922Z,3.70
2018-01-12T10:40:05.765Z,3.70
2018-01-12T10:41:07.817Z,3.70
2018-01-12T10:42:05.315Z,3.70
2018-01-12T10:43:08.439Z,3.80
2018-01-12T10:44:08.441Z,3.70
2018-01-12T10:45:05.878Z,3.70
2018-01-12T10:46:05.504Z,3.80
2018-01-12T10:47:06.150Z,3.80
2018-01-12T10:48:08.045Z,3.80
2018-01-12T10:49:08.033Z,3.80
2018-01-12T10:50:07.974Z,3.80
2018-01-12T10:51:06.079Z,3.80
2018-01-12T10:52:08.210Z,3.80
2018-01-12T10:53:05.526Z,3.80
2018-01-12T10:54:06.074Z,3.80
2018-01-12T10:55:10.643Z,3.80
2018-01-12T10:56:11.242Z,3.80
2018-01-12T10:57:08.074Z,3.80
2018-01-12T10:58:05.783Z,3.80
2018-01-12T10:59:07.847Z,3.80
2018-01-12T11:00:05.292Z,3.80
2018-01-12T11:01:05.460Z,3.80
2018-01-12T11:02:05.519Z,3.80
2018-01-12T11:03:05.349Z,3.80
2018-01-12T11:04:05.807Z,3.80
2018-01-12T11:05:10.949Z,3.80
2018-01-12T11:06:05.212Z,3.80
2018-01-12T11:07:05.668Z,3.80
2018-01-12T11:08:08.123Z,3.80
2018-01-12T11:09:05.884Z,3.80
2018-01-12T11:10:08.173Z,3.90
2018-01-12T11:11:08.047Z,3.80
2018-01-12T11:12:05.564Z,3.80
2018-01-12T11:13:08.642Z,3.90
2018-01-12T11:14:06.123Z,3.90
2018-01-12T11:15:05.514Z,3.90
2018-01-12T11:16:06.050Z,3.90
2018-01-12T11:17:05.545Z,3.90
2018-01-12T11:18:06.070Z,3.90
2018-01-12T11:19:10.724Z,3.90
2018-01-12T11:20:13.352Z,3.90
2018-01-12T11:21:08.221Z,4.00
2018-01-12T11:22:05.572Z,3.90
2018-01-12T11:23:06.043Z,3.90
2018-01-12T11:24:05.548Z,4.00
2018-01-12T11:25:07.877Z,4.00
2018-01-12T11:26:07.813Z,4.00
2018-01-12T11:27:05.163Z,4.00
2018-01-12T11:28:08.240Z,4.00
2018-01-12T11:29:08.051Z,4.00
2018-01-12T11:30:05.462Z,4.00
2018-01-12T11:31:05.448Z,4.00
2018-01-12T11:32:05.489Z,4.00
2018-01-12T11:33:08.469Z,4.10
2018-01-12T11:34:08.392Z,4.00
2018-01-12T11:35:05.170Z,4.00
2018-01-12T11:36:11.080Z,4.10
2018-01-12T11:37:10.546Z,4.00
2018-01-12T11:38:05.909Z,4.10
2018-01-12T11:39:08.048Z,4.10
2018-01-12T11:40:05.390Z,4.10
2018-01-12T11:41:05.425Z,4.10
2018-01-12T11:42:08.470Z,4.10
2018-01-12T11:43:05.845Z,4.20
2018-01-12T11:44:07.958Z,4.10
2018-01-12T11:45:08.176Z,4.20
2018-01-12T11:46:08.074Z,4.20
2018-01-12T11:47:05.420Z,4.20
2018-01-12T11:48:08.599Z,4.20
2018-01-12T11:49:05.939Z,4.20
2018-01-12T11:50:05.816Z,4.20
2018-01-12T11:51:05.458Z,4.20
2018-01-12T11:52:08.444Z,4.20
2018-01-12T11:53:05.748Z,4.20
2018-01-12T11:54:10.251Z,4.20
2018-01-12T11:55:05.243Z,4.20
2018-01-12T11:56:05.992Z,4.20
2018-01-12T11:57:05.563Z,4.20
2018-01-12T11:58:08.666Z,4.20
2018-01-12T11:59:13.785Z,4.20
2018-01-12T12:00:05.307Z,4.20
2018-01-12T12:01:05.818Z,4.20
2018-01-12T12:02:05.368Z,4.20
2018-01-12T12:03:05.837Z,4.20
2018-01-12T12:04:07.937Z,4.20
2018-01-12T12:05:05.307Z,4.20
2018-01-12T12:06:05.427Z,4.20
2018-01-12T12:07:08.412Z,4.20
2018-01-12T12:08:05.765Z,4.20
2018-01-12T12:09:05.541Z,4.30
2018-01-12T12:10:06.148Z,4.20
2018-01-12T12:11:05.688Z,4.20
2018-01-12T12:12:08.061Z,4.20
2018-01-12T12:13:05.389Z,4.20
2018-01-12T12:14:05.162Z,4.20
2018-01-12T12:15:08.185Z,4.30
2018-01-12T12:16:08.119Z,4.30
2018-01-12T12:17:08.008Z,4.20
2018-01-12T12:18:10.440Z,4.20
2018-01-12T12:19:08.287Z,4.20
2018-01-12T12:20:08.217Z,4.20
2018-01-12T12:21:05.856Z,4.30
2018-01-12T12:22:05.745Z,4.30
2018-01-12T12:23:07.785Z,4.30
2018-01-12T12:24:07.921Z,4.30
2018-01-12T12:25:05.399Z,4.30
2018-01-12T12:26:05.839Z,4.30
2018-01-12T12:27:08.605Z,4.30
2018-01-12T12:28:08.201Z,4.30
2018-01-12T12:29:10.580Z,4.30
2018-01-12T12:30:05.843Z,4.30
2018-01-12T12:31:05.328Z,4.30
2018-01-12T12:32:06.010Z,4.30
2018-01-12T12:33:08.025Z,4.30
2018-01-12T12:34:05.506Z,4.30
2018-01-12T12:35:08.738Z,4.30
2018-01-12T12:36:08.611Z,4.30
2018-01-12T12:37:06.025Z,4.30
2018-01-12T12:38:05.791Z,4.30
2018-01-12T12:39:05.349Z,4.30
2018-01-12T12:40:10.551Z,4.30
2018-01-12T12:41:06.109Z,4.30
2018-01-12T12:42:05.186Z,4.30
2018-01-12T12:43:05.723Z,4.30
2018-01-12T12:44:05.576Z,4.30
2018-01-12T12:45:06.033Z,4.30
2018-01-12T12:46:05.732Z,4.30
2018-01-12T12:47:05.212Z,4.30
2018-01-12T12:48:06.115Z,4.30
2018-01-12T12:49:08.354Z,4.30
2018-01-12T12:50:06.001Z,4.30
2018-01-12T12:51:05.532Z,4.30
2018-01-12T12:52:10.624Z,4.40
2018-01-12T12:53:05.383Z,4.30
2018-01-12T12:54:05.815Z,4.30
2018-01-12T12:55:07.953Z,4.30
2018-01-12T12:56:05.406Z,4.40
2018-01-12T12:57:05.991Z,4.30
2018-01-12T12:58:10.803Z,4.40
2018-01-12T12:59:05.323Z,4.40
2018-01-12T13:00:08.646Z,4.40
2018-01-12T13:01:06.085Z,4.40
2018-01-12T13:02:05.634Z,4.30
2018-01-12T13:03:05.461Z,4.30
2018-01-12T13:04:08.480Z,4.40
2018-01-12T13:05:05.867Z,4.40
2018-01-12T13:06:05.254Z,4.40
2018-01-12T13:07:08.392Z,4.40
2018-01-12T13:08:08.354Z,4.40
2018-01-12T13:09:05.921Z,4.40
2018-01-12T13:10:08.005Z,4.40
2018-01-12T13:11:10.706Z,4.40
2018-01-12T13:12:08.863Z,4.40
2018-01-12T13:13:06.099Z,4.40
2018-01-12T13:14:05.688Z,4.40
2018-01-12T13:15:05.290Z,4.40
2018-01-12T13:16:05.932Z,4.40
2018-01-12T13:17:07.968Z,4.40
2018-01-12T13:18:08.173Z,4.40